Terminal Aerodrome Forecast
Issued by NWS

Home | Current Version | Previous Version | Graphics & Text | Print | Product List | Glossary On
Versions: 1 2 3 4 5 6 7 8 9 10 11 12 13 14
000
FTUS43 KICT 011132 AAA
TAFSLN
TAF AMD
KSLN 011132Z 0112/0212 26010KT P6SM SCT012 BKN035
      TEMPO 0112/0116 BKN012
     FM011600 33015G23KT P6SM SCT020 BKN030
     FM012300 36011KT P6SM BKN035
     FM020700 36007KT P6SM SCT012 BKN025=

USA.gov is the U.S. government's official web portal to all federal, state and local government web resources and services.